createdAt,value
2018-05-21T00:02:14.172Z,50.60
2018-05-21T00:04:41.751Z,49.20
2018-05-21T00:07:09.291Z,49.10
2018-05-21T00:09:36.920Z,50.70
2018-05-21T00:12:04.500Z,50.00
2018-05-21T00:14:32.020Z,49.90
2018-05-21T00:16:59.581Z,50.20
2018-05-21T00:19:27.099Z,50.30
2018-05-21T00:21:54.684Z,49.80
2018-05-21T00:24:22.977Z,49.70
2018-05-21T00:26:50.514Z,49.70
2018-05-21T00:29:18.078Z,49.10
2018-05-21T00:31:46.367Z,49.70
2018-05-21T00:34:14.692Z,49.50
2018-05-21T00:36:42.208Z,49.50
2018-05-21T00:39:09.768Z,49.00
2018-05-21T00:41:37.324Z,49.50
2018-05-21T00:44:04.870Z,49.40
2018-05-21T00:46:33.196Z,49.80
2018-05-21T00:49:00.722Z,49.80
2018-05-21T00:51:29.051Z,50.20
2018-05-21T00:53:56.595Z,50.20
2018-05-21T00:56:24.123Z,49.90
2018-05-21T00:58:51.728Z,48.40
2018-05-21T01:01:19.325Z,50.20
2018-05-21T01:03:46.937Z,48.80
2018-05-21T01:06:14.502Z,48.70
2018-05-21T01:08:42.023Z,49.70
2018-05-21T01:11:09.583Z,49.30
2018-05-21T01:13:37.154Z,50.20
2018-05-21T01:16:04.667Z,49.50
2018-05-21T01:18:32.222Z,49.30
2018-05-21T01:20:59.752Z,50.20
2018-05-21T01:23:27.311Z,49.60
2018-05-21T01:25:54.840Z,49.50
2018-05-21T01:28:22.397Z,49.30
2018-05-21T01:30:49.941Z,49.60
2018-05-21T01:33:18.268Z,50.00
2018-05-21T01:35:45.836Z,49.90
2018-05-21T01:38:13.419Z,49.60
2018-05-21T01:40:40.982Z,49.80
2018-05-21T01:43:08.513Z,49.70
2018-05-21T01:45:36.069Z,50.40
2018-05-21T01:48:03.583Z,49.10
2018-05-21T01:50:31.156Z,49.10
2018-05-21T01:52:58.679Z,49.30
2018-05-21T01:55:33.970Z,49.40
2018-05-21T01:58:01.499Z,48.60
2018-05-21T02:00:29.821Z,50.10
2018-05-21T02:02:57.393Z,50.10
2018-05-21T02:05:24.983Z,49.90
2018-05-21T02:07:52.606Z,49.40
2018-05-21T02:10:20.138Z,49.30
2018-05-21T02:12:47.759Z,49.60
2018-05-21T02:15:15.257Z,49.40
2018-05-21T02:17:42.820Z,50.00
2018-05-21T02:20:10.393Z,48.80
2018-05-21T02:22:37.967Z,48.50
2018-05-21T02:25:05.527Z,47.70
2018-05-21T02:27:33.092Z,48.50
2018-05-21T02:30:00.752Z,48.30
2018-05-21T02:32:29.066Z,49.20
2018-05-21T02:34:56.648Z,49.20
2018-05-21T02:37:24.191Z,48.90
2018-05-21T02:39:52.509Z,49.80
2018-05-21T02:42:20.043Z,49.80
2018-05-21T02:44:47.604Z,50.00
2018-05-21T02:47:15.141Z,49.30
2018-05-21T02:49:42.698Z,50.00
2018-05-21T02:52:11.025Z,49.30
2018-05-21T02:54:38.562Z,49.30
2018-05-21T02:57:06.136Z,49.80
2018-05-21T02:59:33.668Z,49.90
2018-05-21T03:02:01.245Z,49.80
2018-05-21T03:04:28.799Z,49.40
2018-05-21T03:06:56.341Z,49.50
2018-05-21T03:09:23.920Z,49.50
2018-05-21T03:11:51.453Z,49.60
2018-05-21T03:14:19.039Z,49.60
2018-05-21T03:16:46.617Z,49.80
2018-05-21T03:19:14.177Z,50.10
2018-05-21T03:21:41.701Z,49.80
2018-05-21T03:24:09.251Z,49.80
2018-05-21T03:26:37.608Z,49.70
2018-05-21T03:29:05.187Z,49.70
2018-05-21T03:31:32.716Z,50.00
2018-05-21T03:34:00.280Z,49.90
2018-05-21T03:36:27.863Z,50.00
2018-05-21T03:38:55.412Z,49.80
2018-05-21T03:41:23.000Z,50.10
2018-05-21T03:43:50.561Z,49.60
2018-05-21T03:46:18.142Z,49.80
2018-05-21T03:48:45.681Z,50.10
2018-05-21T03:51:14.005Z,49.90
2018-05-21T03:53:41.651Z,49.90
2018-05-21T03:56:09.112Z,49.90
2018-05-21T03:58:48.348Z,50.30
2018-05-21T04:01:27.617Z,50.60
2018-05-21T04:03:55.173Z,50.10
2018-05-21T04:06:22.751Z,50.60
2018-05-21T04:08:51.080Z,51.00
2018-05-21T04:11:18.599Z,51.00
2018-05-21T04:13:46.925Z,51.50
2018-05-21T04:16:14.573Z,51.50
2018-05-21T04:18:42.157Z,50.30
2018-05-21T04:21:09.743Z,51.10
2018-05-21T04:23:37.296Z,51.20
2018-05-21T04:26:05.428Z,51.70
2018-05-21T04:28:32.995Z,51.70
2018-05-21T04:31:00.568Z,51.80
2018-05-21T04:33:28.138Z,51.80
2018-05-21T04:35:55.708Z,51.90
2018-05-21T04:38:23.245Z,52.10
2018-05-21T04:40:50.804Z,52.50
2018-05-21T04:43:18.328Z,52.40
2018-05-21T04:45:45.948Z,52.00
2018-05-21T04:48:13.487Z,52.00
2018-05-21T04:50:41.048Z,52.20
2018-05-21T04:53:08.711Z,52.50
2018-05-21T04:55:36.231Z,52.30
2018-05-21T04:58:03.812Z,52.70
2018-05-21T05:00:31.349Z,52.30
2018-05-21T05:02:58.916Z,52.80
2018-05-21T05:05:26.440Z,52.90
2018-05-21T05:07:54.779Z,53.50
2018-05-21T05:10:22.309Z,52.90
2018-05-21T05:12:49.884Z,52.80
2018-05-21T05:15:17.409Z,53.10
2018-05-21T05:17:45.740Z,52.00
2018-05-21T05:20:13.302Z,52.00
2018-05-21T05:22:41.002Z,52.60
2018-05-21T05:25:09.356Z,53.10
2018-05-21T05:27:36.891Z,52.90
2018-05-21T05:30:04.448Z,52.90
2018-05-21T05:32:32.004Z,53.30
2018-05-21T05:34:59.579Z,52.80
2018-05-21T05:37:27.149Z,53.10
2018-05-21T05:39:54.668Z,53.20
2018-05-21T05:42:22.192Z,53.20
2018-05-21T05:44:50.540Z,53.20
2018-05-21T05:47:18.095Z,53.20
2018-05-21T05:49:45.659Z,53.20
2018-05-21T05:52:13.220Z,53.60
2018-05-21T05:54:40.739Z,53.00
2018-05-21T05:57:08.368Z,53.20
2018-05-21T05:59:35.902Z,53.50
2018-05-21T06:02:03.455Z,53.70
2018-05-21T06:04:30.980Z,52.30
2018-05-21T06:06:58.538Z,53.10
2018-05-21T06:09:26.100Z,53.00
2018-05-21T06:11:53.637Z,52.80
2018-05-21T06:14:21.204Z,52.80
2018-05-21T06:16:48.793Z,53.40
2018-05-21T06:19:16.361Z,53.10
2018-05-21T06:21:43.949Z,53.10
2018-05-21T06:24:11.485Z,52.80
2018-05-21T06:26:39.043Z,53.10
2018-05-21T06:29:06.561Z,52.80
2018-05-21T06:31:34.128Z,52.60
2018-05-21T06:34:01.712Z,53.00
2018-05-21T06:36:29.284Z,52.30
2018-05-21T06:38:56.855Z,52.20
2018-05-21T06:41:24.461Z,52.40
2018-05-21T06:43:52.032Z,52.60
2018-05-21T06:46:19.594Z,52.30
2018-05-21T06:48:47.153Z,52.00
2018-05-21T06:51:14.684Z,51.90
2018-05-21T06:53:43.024Z,50.40
2018-05-21T06:56:10.586Z,50.40
2018-05-21T06:58:38.111Z,50.20
2018-05-21T07:01:05.672Z,50.00
2018-05-21T07:03:33.194Z,49.60
2018-05-21T07:06:01.544Z,49.20
2018-05-21T07:08:29.068Z,49.10
2018-05-21T07:10:56.599Z,48.90
2018-05-21T07:13:24.176Z,48.40
2018-05-21T07:15:51.700Z,48.50
2018-05-21T07:18:19.410Z,48.00
2018-05-21T07:20:46.836Z,47.90
2018-05-21T07:23:14.426Z,47.70
2018-05-21T07:25:41.947Z,47.70
2018-05-21T07:28:09.511Z,47.80
2018-05-21T07:30:37.077Z,47.60
2018-05-21T07:33:05.398Z,47.80
2018-05-21T07:35:32.931Z,47.70
2018-05-21T07:38:00.489Z,47.50
2018-05-21T07:40:28.023Z,47.80
2018-05-21T07:42:55.584Z,47.50
2018-05-21T07:45:24.034Z,47.10
2018-05-21T07:47:51.576Z,46.80
2018-05-21T07:50:19.188Z,46.60
2018-05-21T07:52:46.749Z,46.60
2018-05-21T07:55:14.331Z,46.30
2018-05-21T07:57:42.624Z,46.80
2018-05-21T08:00:10.170Z,46.80
2018-05-21T08:02:38.485Z,46.70
2018-05-21T08:05:06.044Z,46.70
2018-05-21T08:07:33.592Z,46.70
2018-05-21T08:10:01.117Z,46.90
2018-05-21T08:12:29.441Z,46.80
2018-05-21T08:14:57.044Z,46.80
2018-05-21T08:17:24.993Z,46.60
2018-05-21T08:19:52.532Z,46.70
2018-05-21T08:22:20.124Z,46.90
2018-05-21T08:24:47.700Z,46.80
2018-05-21T08:27:16.065Z,46.80
2018-05-21T08:29:43.733Z,46.90
2018-05-21T08:32:12.037Z,47.10
2018-05-21T08:34:40.486Z,47.10
2018-05-21T08:37:08.043Z,47.20
2018-05-21T08:39:35.616Z,47.10
2018-05-21T08:42:03.916Z,47.50
2018-05-21T08:44:31.535Z,47.50
2018-05-21T08:46:59.077Z,47.90
2018-05-21T08:49:26.700Z,47.70
2018-05-21T08:51:54.285Z,47.10
2018-05-21T08:54:21.815Z,46.80
2018-05-21T08:56:49.359Z,47.00
2018-05-21T08:59:16.985Z,47.60
2018-05-21T09:01:44.515Z,47.80
2018-05-21T09:04:12.044Z,48.00
2018-05-21T09:06:39.596Z,47.10
2018-05-21T09:09:07.892Z,47.50
2018-05-21T09:11:35.469Z,47.40
2018-05-21T09:14:03.050Z,47.90
2018-05-21T09:16:30.709Z,48.10
2018-05-21T09:18:58.267Z,47.90
2018-05-21T09:21:25.820Z,47.90
2018-05-21T09:23:53.384Z,49.10
2018-05-21T09:26:20.931Z,48.60
2018-05-21T09:28:48.456Z,48.50
2018-05-21T09:31:16.038Z,48.60
2018-05-21T09:33:43.568Z,48.70
2018-05-21T09:36:11.111Z,48.50
2018-05-21T09:38:38.694Z,48.70
2018-05-21T09:41:07.004Z,48.70
2018-05-21T09:43:34.606Z,48.60
2018-05-21T09:46:02.236Z,48.90
2018-05-21T09:48:30.714Z,49.50
2018-05-21T09:50:58.232Z,49.30
2018-05-21T09:53:25.786Z,49.30
2018-05-21T09:55:53.394Z,48.90
2018-05-21T09:58:20.959Z,49.00
2018-05-21T10:00:54.266Z,49.00
2018-05-21T10:03:22.393Z,48.70
2018-05-21T10:05:49.977Z,48.70
2018-05-21T10:08:17.560Z,49.10
2018-05-21T10:10:45.104Z,49.40
2018-05-21T10:13:12.705Z,49.30
2018-05-21T10:15:40.295Z,49.10
2018-05-21T10:18:07.842Z,49.60
2018-05-21T10:20:36.181Z,49.40
2018-05-21T10:23:03.780Z,49.40
2018-05-21T10:25:31.340Z,49.40
2018-05-21T10:27:58.941Z,49.00
2018-05-21T10:30:26.516Z,49.30
2018-05-21T10:32:54.075Z,49.30
2018-05-21T10:35:21.667Z,49.00
2018-05-21T10:37:49.241Z,49.10
2018-05-21T10:40:16.888Z,50.00
2018-05-21T10:42:44.411Z,49.90
2018-05-21T10:45:12.002Z,50.30
2018-05-21T10:47:39.571Z,50.30
2018-05-21T10:50:07.129Z,49.60
2018-05-21T10:52:34.778Z,49.60
2018-05-21T10:55:02.321Z,49.80
2018-05-21T10:57:29.995Z,49.40
2018-05-21T10:59:57.583Z,49.30
2018-05-21T11:02:25.184Z,49.80
2018-05-21T11:04:52.764Z,49.80
2018-05-21T11:07:20.285Z,49.00
2018-05-21T11:09:47.816Z,49.30
2018-05-21T11:12:16.187Z,49.00
2018-05-21T11:14:43.764Z,49.00
2018-05-21T11:17:11.358Z,49.10
2018-05-21T11:19:38.957Z,49.40
2018-05-21T11:22:06.515Z,49.20
2018-05-21T11:24:34.093Z,49.60
2018-05-21T11:27:01.654Z,49.50
2018-05-21T11:29:29.304Z,49.40
2018-05-21T11:31:57.739Z,49.00
2018-05-21T11:34:25.281Z,49.00
2018-05-21T11:36:52.821Z,49.00
2018-05-21T11:39:20.392Z,48.30
2018-05-21T11:41:48.730Z,49.10
2018-05-21T11:44:16.285Z,49.00
2018-05-21T11:46:43.844Z,48.90
2018-05-21T11:49:11.373Z,49.10
2018-05-21T11:51:38.939Z,49.30
2018-05-21T11:54:06.505Z,49.30
2018-05-21T11:56:34.083Z,48.40
2018-05-21T11:59:01.639Z,48.50
2018-05-21T12:01:29.192Z,48.00
2018-05-21T12:03:56.734Z,47.90
2018-05-21T12:06:24.307Z,48.00
2018-05-21T12:08:52.398Z,48.30
2018-05-21T12:11:20.019Z,47.00
2018-05-21T12:13:47.908Z,47.50
2018-05-21T12:16:15.570Z,47.50
2018-05-21T12:18:43.096Z,46.90
2018-05-21T12:21:11.421Z,47.40
2018-05-21T12:23:38.972Z,47.40
2018-05-21T12:26:06.596Z,48.40
2018-05-21T12:28:34.992Z,47.50
2018-05-21T12:31:02.536Z,48.10
2018-05-21T12:33:30.187Z,47.40
2018-05-21T12:35:57.745Z,47.80
2018-05-21T12:38:25.385Z,47.60
2018-05-21T12:40:52.920Z,46.90
2018-05-21T12:43:20.494Z,47.20
2018-05-21T12:45:48.164Z,47.70
2018-05-21T12:48:15.690Z,47.40
2018-05-21T12:50:43.274Z,46.60
2018-05-21T12:53:10.926Z,46.30
2018-05-21T12:55:38.448Z,46.90
2018-05-21T12:58:06.006Z,46.60
2018-05-21T13:00:33.556Z,47.30
2018-05-21T13:03:01.127Z,47.50
2018-05-21T13:05:28.657Z,47.00
2018-05-21T13:07:56.263Z,46.50
2018-05-21T13:10:23.833Z,46.70
2018-05-21T13:12:51.459Z,47.60
2018-05-21T13:15:19.028Z,46.30
2018-05-21T13:17:46.580Z,46.40
2018-05-21T13:20:14.120Z,46.50
2018-05-21T13:22:42.494Z,46.30
2018-05-21T13:25:10.125Z,46.30
2018-05-21T13:27:37.747Z,47.10
2018-05-21T13:30:05.364Z,46.90
2018-05-21T13:32:32.902Z,46.60
2018-05-21T13:35:00.473Z,46.90
2018-05-21T13:37:28.025Z,47.20
2018-05-21T13:39:55.591Z,46.80
2018-05-21T13:42:23.164Z,47.10
2018-05-21T13:44:50.724Z,46.60
2018-05-21T13:47:18.260Z,46.40
2018-05-21T13:49:45.831Z,46.00
2018-05-21T13:52:13.385Z,46.10
2018-05-21T13:54:40.976Z,45.80
2018-05-21T13:57:09.290Z,46.70
2018-05-21T13:59:36.891Z,46.60
2018-05-21T14:02:04.443Z,47.50
2018-05-21T14:04:32.033Z,46.60
2018-05-21T14:06:59.555Z,46.20
2018-05-21T14:09:27.092Z,46.00
2018-05-21T14:11:55.526Z,46.20
2018-05-21T14:14:23.059Z,46.20
2018-05-21T14:16:50.639Z,46.30
2018-05-21T14:19:18.243Z,46.80
2018-05-21T14:21:46.356Z,46.70
2018-05-21T14:24:13.962Z,47.20
2018-05-21T14:26:41.565Z,47.10
2018-05-21T14:29:09.157Z,47.60
2018-05-21T14:31:36.808Z,47.90
2018-05-21T14:34:04.423Z,47.10
2018-05-21T14:36:32.027Z,47.30
2018-05-21T14:38:59.607Z,46.60
2018-05-21T14:41:27.310Z,45.60
2018-05-21T14:43:54.850Z,44.60
2018-05-21T14:46:23.206Z,45.40
2018-05-21T14:48:50.738Z,45.40
2018-05-21T14:51:18.285Z,46.10
2018-05-21T14:53:45.935Z,45.70
2018-05-21T14:56:13.490Z,46.30
2018-05-21T14:58:41.086Z,45.60
2018-05-21T15:01:08.675Z,46.10
2018-05-21T15:03:36.208Z,45.90
2018-05-21T15:06:03.794Z,44.70
2018-05-21T15:08:31.303Z,45.10
2018-05-21T15:10:59.501Z,45.80
2018-05-21T15:13:27.072Z,46.30
2018-05-21T15:15:54.657Z,46.90
2018-05-21T15:18:22.350Z,45.30
2018-05-21T15:20:49.901Z,45.20
2018-05-21T15:23:17.452Z,44.40
2018-05-21T15:25:45.245Z,45.70
2018-05-21T15:28:12.815Z,45.20
2018-05-21T15:30:40.390Z,45.50
2018-05-21T15:33:08.024Z,45.10
2018-05-21T15:35:35.608Z,45.30
2018-05-21T15:38:03.211Z,45.60
2018-05-21T15:40:30.807Z,46.30
2018-05-21T15:42:58.414Z,46.00
2018-05-21T15:45:26.724Z,46.40
2018-05-21T15:47:54.273Z,46.40
2018-05-21T15:50:21.813Z,47.00
2018-05-21T15:52:49.393Z,47.40
2018-05-21T15:55:17.703Z,47.00
2018-05-21T15:57:45.344Z,47.00
2018-05-21T16:00:12.995Z,47.20
2018-05-21T16:02:41.319Z,47.40
2018-05-21T16:05:08.864Z,47.40
2018-05-21T16:07:36.424Z,47.50
2018-05-21T16:10:04.624Z,46.60
2018-05-21T16:12:32.179Z,46.00
2018-05-21T16:14:59.746Z,46.40
2018-05-21T16:17:27.340Z,45.90
2018-05-21T16:19:55.762Z,45.40
2018-05-21T16:22:23.321Z,45.30
2018-05-21T16:24:50.904Z,46.00
2018-05-21T16:27:18.485Z,47.00
2018-05-21T16:29:46.058Z,45.60
2018-05-21T16:32:13.611Z,45.30
2018-05-21T16:34:41.967Z,45.20
2018-05-21T16:37:09.554Z,45.20
2018-05-21T16:39:37.125Z,45.80
2018-05-21T16:42:04.722Z,46.40
2018-05-21T16:44:32.348Z,46.80
2018-05-21T16:47:00.640Z,45.70
2018-05-21T16:49:28.202Z,45.70
2018-05-21T16:51:55.848Z,45.80
2018-05-21T16:54:23.449Z,45.80
2018-05-21T16:56:50.986Z,46.00
2018-05-21T16:59:18.563Z,46.00
2018-05-21T17:01:46.087Z,46.30
2018-05-21T17:04:13.696Z,46.60
2018-05-21T17:06:41.307Z,46.60
2018-05-21T17:09:09.684Z,46.50
2018-05-21T17:11:37.987Z,46.80
2018-05-21T17:14:05.612Z,46.80
2018-05-21T17:16:33.228Z,47.20
2018-05-21T17:19:01.602Z,48.00
2018-05-21T17:21:29.177Z,47.90
2018-05-21T17:23:56.726Z,47.70
2018-05-21T17:26:24.444Z,47.90
2018-05-21T17:28:52.833Z,47.90
2018-05-21T17:31:21.142Z,47.80
2018-05-21T17:33:48.733Z,47.70
2018-05-21T17:36:16.445Z,48.30
2018-05-21T17:38:43.945Z,48.40
2018-05-21T17:41:11.515Z,48.70
2018-05-21T17:43:39.075Z,49.50
2018-05-21T17:46:06.676Z,49.50
2018-05-21T17:48:34.229Z,48.90
2018-05-21T17:51:01.833Z,49.10
2018-05-21T17:53:29.394Z,49.10
2018-05-21T17:55:56.958Z,49.00
2018-05-21T17:58:24.522Z,49.30
2018-05-21T18:00:52.091Z,49.40
2018-05-21T18:03:19.709Z,49.30
2018-05-21T18:05:47.220Z,49.70
2018-05-21T18:08:14.820Z,49.70
2018-05-21T18:10:42.380Z,50.10
2018-05-21T18:13:09.974Z,50.00
2018-05-21T18:15:37.562Z,50.10
2018-05-21T18:18:05.099Z,50.00
2018-05-21T18:20:32.660Z,50.20
2018-05-21T18:23:00.198Z,50.30
2018-05-21T18:25:27.782Z,50.70
2018-05-21T18:27:55.356Z,50.70
2018-05-21T18:30:22.911Z,50.50
2018-05-21T18:32:50.464Z,50.70
2018-05-21T18:35:18.029Z,50.70
2018-05-21T18:37:45.601Z,51.00
2018-05-21T18:40:13.160Z,51.10
2018-05-21T18:42:40.733Z,51.10
2018-05-21T18:45:08.289Z,51.10
2018-05-21T18:47:36.639Z,51.10
2018-05-21T18:50:04.219Z,51.10
2018-05-21T18:52:31.764Z,51.20
2018-05-21T18:55:00.088Z,51.50
2018-05-21T18:57:27.624Z,51.50
2018-05-21T18:59:55.276Z,51.30
2018-05-21T19:02:22.922Z,52.00
2018-05-21T19:04:50.486Z,52.10
2018-05-21T19:07:18.662Z,51.80
2018-05-21T19:12:28.111Z,51.10
2018-05-21T19:14:55.662Z,50.10
2018-05-21T19:17:23.238Z,49.90
2018-05-21T19:19:50.849Z,50.10
2018-05-21T19:22:19.268Z,50.50
2018-05-21T19:24:46.821Z,50.60
2018-05-21T19:27:14.449Z,51.00
2018-05-21T19:29:42.029Z,49.80
2018-05-21T19:32:09.580Z,50.30
2018-05-21T19:34:37.164Z,50.70
2018-05-21T19:37:04.708Z,51.20
2018-05-21T19:39:32.231Z,51.40
2018-05-21T19:41:59.792Z,51.60
2018-05-21T19:44:28.122Z,52.60
2018-05-21T19:46:55.663Z,52.60
2018-05-21T19:49:24.005Z,52.60
2018-05-21T19:51:52.319Z,52.80
2018-05-21T19:54:19.993Z,52.80
2018-05-21T19:56:47.616Z,52.40
2018-05-21T19:59:15.920Z,51.10
2018-05-21T20:01:43.494Z,51.10
2018-05-21T20:04:11.043Z,51.20
2018-05-21T20:06:38.615Z,51.90
2018-05-21T20:09:06.207Z,52.10
2018-05-21T20:11:33.838Z,52.00
2018-05-21T20:14:01.404Z,52.20
2018-05-21T20:16:29.008Z,51.00
2018-05-21T20:18:56.543Z,51.30
2018-05-21T20:21:24.329Z,50.70
2018-05-21T20:23:52.647Z,50.60
2018-05-21T20:26:20.271Z,50.30
2018-05-21T20:28:48.596Z,50.60
2018-05-21T20:31:16.165Z,50.60
2018-05-21T20:33:43.717Z,51.20
2018-05-21T20:36:11.283Z,52.00
2018-05-21T20:38:38.864Z,52.40
2018-05-21T20:41:06.417Z,52.20
2018-05-21T20:43:33.978Z,51.70
2018-05-21T20:46:01.581Z,51.60
2018-05-21T20:48:29.133Z,51.90
2018-05-21T20:50:57.465Z,52.90
2018-05-21T20:53:25.026Z,52.90
2018-05-21T20:55:52.583Z,53.70
2018-05-21T20:58:20.131Z,54.10
2018-05-21T21:00:47.719Z,53.80
2018-05-21T21:03:15.264Z,54.30
2018-05-21T21:05:42.804Z,54.50
2018-05-21T21:08:10.387Z,54.30
2018-05-21T21:10:38.078Z,54.30
2018-05-21T21:13:05.566Z,54.10
2018-05-21T21:15:33.106Z,54.30
2018-05-21T21:18:00.780Z,54.20
2018-05-21T21:20:28.434Z,54.50
2018-05-21T21:22:56.038Z,54.90
2018-05-21T21:25:23.569Z,55.00
2018-05-21T21:27:51.157Z,55.10
2018-05-21T21:30:18.749Z,54.60
2018-05-21T21:32:46.297Z,54.60
2018-05-21T21:35:13.869Z,54.90
2018-05-21T21:37:41.416Z,55.00
2018-05-21T21:40:08.962Z,55.40
2018-05-21T21:42:36.517Z,55.60
2018-05-21T21:45:04.049Z,56.00
2018-05-21T21:47:32.805Z,55.90
2018-05-21T21:50:01.111Z,55.60
2018-05-21T21:52:28.664Z,55.60
2018-05-21T21:54:56.192Z,55.70
2018-05-21T21:57:23.744Z,55.70
2018-05-21T21:59:51.280Z,55.80
2018-05-21T22:02:18.840Z,55.50
2018-05-21T22:04:46.374Z,55.50
2018-05-21T22:07:13.946Z,55.80
2018-05-21T22:09:41.520Z,56.00
2018-05-21T22:12:09.039Z,56.00
2018-05-21T22:14:36.602Z,55.90
2018-05-21T22:17:04.186Z,56.00
2018-05-21T22:19:31.744Z,56.00
2018-05-21T22:21:59.269Z,56.00
2018-05-21T22:24:27.602Z,56.10
2018-05-21T22:26:55.163Z,56.10
2018-05-21T22:29:22.700Z,56.20
2018-05-21T22:31:50.260Z,55.90
2018-05-21T22:34:17.829Z,55.80
2018-05-21T22:36:45.408Z,55.60
2018-05-21T22:39:12.948Z,55.70
2018-05-21T22:41:40.476Z,55.90
2018-05-21T22:44:08.040Z,56.30
2018-05-21T22:46:35.632Z,56.20
2018-05-21T22:49:03.204Z,56.60
2018-05-21T22:51:30.775Z,56.70
2018-05-21T22:53:58.360Z,56.70
2018-05-21T22:56:26.653Z,56.70
2018-05-21T22:58:54.177Z,56.60
2018-05-21T23:01:21.740Z,56.70
2018-05-21T23:03:49.299Z,56.90
2018-05-21T23:06:16.828Z,57.10
2018-05-21T23:08:44.387Z,57.20
2018-05-21T23:11:11.947Z,57.20
2018-05-21T23:13:39.654Z,57.30
2018-05-21T23:16:07.173Z,57.50
2018-05-21T23:18:34.746Z,57.50
2018-05-21T23:21:02.301Z,57.80
2018-05-21T23:23:29.820Z,58.00
2018-05-21T23:25:57.336Z,58.00
2018-05-21T23:28:24.953Z,58.10
2018-05-21T23:30:52.531Z,57.90
2018-05-21T23:33:20.112Z,58.10
2018-05-21T23:35:47.684Z,58.30
2018-05-21T23:38:15.243Z,58.30
2018-05-21T23:40:42.838Z,58.30
2018-05-21T23:43:10.364Z,58.20
2018-05-21T23:45:37.925Z,58.20
2018-05-21T23:48:05.463Z,58.30
2018-05-21T23:50:33.016Z,58.50
2018-05-21T23:53:00.569Z,58.50
2018-05-21T23:55:28.161Z,58.50
2018-05-21T23:57:56.512Z,58.40
